createdAt,value
2023-03-20T00:01:14.720Z,8.24
2023-03-20T00:03:41.948Z,8.22
2023-03-20T00:06:21.711Z,7.78
2023-03-20T00:08:51.870Z,7.89
2023-03-20T00:11:34.624Z,7.52
2023-03-20T00:14:06.553Z,7.05
2023-03-20T00:16:36.188Z,6.67
2023-03-20T00:19:04.166Z,6.69
2023-03-20T00:21:31.929Z,7.14
2023-03-20T00:23:59.287Z,7.26
2023-03-20T00:26:31.188Z,7.49
2023-03-20T00:28:58.168Z,7.61
2023-03-20T00:31:29.748Z,7.76
2023-03-20T00:34:01.751Z,8.19
2023-03-20T00:36:29.040Z,8.40
2023-03-20T00:38:59.494Z,7.67
2023-03-20T00:41:44.408Z,7.21
2023-03-20T00:44:42.405Z,6.92
2023-03-20T00:47:19.030Z,7.00
2023-03-20T00:49:48.177Z,6.87
2023-03-20T00:52:17.351Z,6.86
2023-03-20T00:54:44.341Z,6.94
2023-03-20T00:57:14.113Z,7.17
2023-03-20T00:59:50.949Z,7.11
2023-03-20T01:02:18.053Z,7.13
2023-03-20T01:04:45.216Z,7.46
2023-03-20T01:07:15.360Z,7.42
2023-03-20T01:09:42.618Z,6.83
2023-03-20T01:12:12.664Z,6.87
2023-03-20T01:14:42.138Z,7.21
2023-03-20T01:17:19.890Z,7.52
2023-03-20T01:19:47.920Z,7.54
2023-03-20T01:22:15.011Z,7.15
2023-03-20T01:24:42.189Z,7.03
2023-03-20T01:27:14.446Z,6.56
2023-03-20T01:29:42.257Z,6.94
2023-03-20T01:32:15.237Z,7.36
2023-03-20T01:34:44.994Z,7.25
2023-03-20T01:37:18.692Z,7.02
2023-03-20T01:39:46.162Z,7.17
2023-03-20T01:42:16.450Z,6.80
2023-03-20T01:44:44.569Z,6.61
2023-03-20T01:47:21.474Z,6.99
2023-03-20T01:50:19.530Z,6.86
2023-03-20T01:52:50.835Z,6.88
2023-03-20T01:55:18.491Z,6.51
2023-03-20T01:57:54.787Z,6.41
2023-03-20T02:00:24.020Z,6.73
2023-03-20T02:02:51.938Z,6.88
2023-03-20T02:05:55.902Z,6.15
2023-03-20T02:08:31.826Z,6.07
2023-03-20T02:11:04.464Z,5.97
2023-03-20T02:13:33.016Z,5.68
2023-03-20T02:16:05.935Z,6.45
2023-03-20T02:18:53.850Z,6.56
2023-03-20T02:21:54.061Z,6.79
2023-03-20T02:24:39.738Z,6.70
2023-03-20T02:27:06.815Z,6.58
2023-03-20T02:30:11.676Z,6.30
2023-03-20T02:33:01.290Z,5.91
2023-03-20T02:35:49.612Z,6.14
2023-03-20T02:38:44.246Z,5.92
2023-03-20T02:41:26.341Z,5.66
2023-03-20T02:44:20.759Z,5.46
2023-03-20T02:47:05.736Z,5.97
2023-03-20T02:49:41.630Z,5.99
2023-03-20T02:52:40.984Z,6.06
2023-03-20T02:55:34.782Z,5.58
2023-03-20T02:58:07.938Z,5.56
2023-03-20T03:00:40.435Z,5.66
2023-03-20T03:03:24.459Z,5.95
2023-03-20T03:05:58.809Z,5.79
2023-03-20T03:08:30.232Z,5.72
2023-03-20T03:11:08.822Z,6.09
2023-03-20T03:13:41.963Z,6.13
2023-03-20T03:16:16.593Z,6.03
2023-03-20T03:18:46.828Z,5.96
2023-03-20T03:21:17.632Z,5.99
2023-03-20T03:23:49.363Z,6.33
2023-03-20T03:26:29.213Z,6.53
2023-03-20T03:29:02.257Z,6.58
2023-03-20T03:31:31.883Z,6.69
2023-03-20T03:34:01.535Z,6.86
2023-03-20T03:36:47.059Z,7.01
2023-03-20T03:39:52.269Z,7.28
2023-03-20T03:42:43.700Z,7.40
2023-03-20T03:45:25.150Z,7.81
2023-03-20T03:48:00.403Z,8.03
2023-03-20T03:50:40.385Z,7.87
2023-03-20T03:53:12.924Z,7.71
2023-03-20T03:55:46.052Z,7.69
2023-03-20T03:58:19.414Z,7.76
2023-03-20T04:00:50.697Z,7.84
2023-03-20T04:03:21.307Z,8.03
2023-03-20T04:05:49.884Z,8.07
2023-03-20T04:08:16.931Z,7.80
2023-03-20T04:10:44.652Z,7.69
2023-03-20T04:13:12.009Z,7.51
2023-03-20T04:15:39.199Z,7.62
2023-03-20T04:18:07.958Z,7.59
2023-03-20T04:20:35.937Z,7.41
2023-03-20T04:23:05.889Z,7.43
2023-03-20T04:25:33.130Z,7.69
2023-03-20T04:28:00.289Z,8.21
2023-03-20T04:30:39.856Z,8.04
2023-03-20T04:33:32.372Z,7.80
2023-03-20T04:36:07.060Z,7.88
2023-03-20T04:38:34.151Z,7.77
2023-03-20T04:41:01.956Z,7.71
2023-03-20T04:43:29.179Z,7.59
2023-03-20T04:45:56.463Z,7.06
2023-03-20T04:48:24.130Z,6.72
2023-03-20T04:50:51.598Z,6.99
2023-03-20T04:53:26.720Z,7.25
2023-03-20T04:55:55.312Z,7.65
2023-03-20T04:58:23.755Z,7.82
2023-03-20T05:00:51.049Z,7.83
2023-03-20T05:03:18.138Z,7.83
2023-03-20T05:05:45.575Z,7.81
2023-03-20T05:08:12.934Z,7.88
2023-03-20T05:10:40.820Z,8.19
2023-03-20T05:13:26.211Z,8.38
2023-03-20T05:16:01.452Z,8.25
2023-03-20T05:18:42.815Z,8.38
2023-03-20T05:21:39.265Z,8.67
2023-03-20T05:24:27.584Z,8.37
2023-03-20T05:27:32.784Z,7.99
2023-03-20T05:30:12.452Z,7.06
2023-03-20T05:32:43.938Z,7.41
2023-03-20T05:35:29.143Z,8.01
2023-03-20T05:38:16.138Z,8.10
2023-03-20T05:41:01.359Z,7.47
2023-03-20T05:43:46.855Z,6.71
2023-03-20T05:46:34.187Z,6.48
2023-03-20T05:49:21.504Z,6.88
2023-03-20T05:52:07.430Z,7.37
2023-03-20T05:54:52.649Z,7.47
2023-03-20T05:57:38.338Z,6.76
2023-03-20T06:00:26.132Z,6.69
2023-03-20T06:03:13.216Z,6.85
2023-03-20T06:05:59.544Z,6.64
2023-03-20T06:08:26.574Z,6.71
2023-03-20T06:10:57.864Z,6.81
2023-03-20T06:13:25.246Z,6.55
2023-03-20T06:15:52.662Z,6.35
2023-03-20T06:18:19.974Z,6.49
2023-03-20T06:20:53.915Z,6.17
2023-03-20T06:23:21.257Z,6.05
2023-03-20T06:25:48.669Z,5.85
2023-03-20T06:28:17.053Z,6.22
2023-03-20T06:30:44.793Z,6.02
2023-03-20T06:33:17.066Z,6.45
2023-03-20T06:35:58.165Z,6.49
2023-03-20T06:38:27.448Z,6.64
2023-03-20T06:40:54.894Z,6.47
2023-03-20T06:43:23.071Z,6.69
2023-03-20T06:45:54.137Z,6.77
2023-03-20T06:48:27.078Z,7.02
2023-03-20T06:50:54.854Z,6.97
2023-03-20T06:53:27.239Z,6.73
2023-03-20T06:56:11.196Z,6.67
2023-03-20T06:58:40.579Z,6.99
2023-03-20T07:01:17.349Z,7.17
2023-03-20T07:03:45.249Z,7.05
2023-03-20T07:06:13.562Z,7.37
2023-03-20T07:08:40.768Z,7.54
2023-03-20T07:11:08.437Z,7.85
2023-03-20T07:13:35.718Z,7.44
2023-03-20T07:16:12.504Z,6.81
2023-03-20T07:18:41.563Z,7.01
2023-03-20T07:21:09.105Z,7.93
2023-03-20T07:23:37.283Z,8.60
2023-03-20T07:26:05.617Z,8.33
2023-03-20T07:28:34.153Z,8.17
2023-03-20T07:31:23.592Z,7.86
2023-03-20T07:33:58.073Z,8.17
2023-03-20T07:36:25.593Z,7.69
2023-03-20T07:38:52.522Z,7.50
2023-03-20T07:41:19.573Z,7.94
2023-03-20T07:43:57.329Z,7.93
2023-03-20T07:46:25.621Z,7.71
2023-03-20T07:48:53.982Z,7.96
2023-03-20T07:51:21.033Z,7.70
2023-03-20T07:53:48.052Z,8.17
2023-03-20T07:56:15.013Z,8.02
2023-03-20T07:58:42.139Z,8.11
2023-03-20T08:01:09.085Z,8.53
2023-03-20T08:03:36.266Z,8.47
2023-03-20T08:06:06.526Z,8.41
2023-03-20T08:08:34.105Z,8.08
2023-03-20T08:11:01.605Z,8.55
2023-03-20T08:13:28.628Z,8.66
2023-03-20T08:15:55.789Z,9.11
2023-03-20T08:18:22.894Z,8.81
2023-03-20T08:20:52.922Z,8.38
2023-03-20T08:23:20.865Z,8.77
2023-03-20T08:25:49.597Z,8.92
2023-03-20T08:28:17.303Z,8.96
2023-03-20T08:30:44.647Z,9.21
2023-03-20T08:33:12.239Z,9.20
2023-03-20T08:35:39.440Z,9.67
2023-03-20T08:38:06.455Z,8.61
2023-03-20T08:40:33.476Z,8.64
2023-03-20T08:43:00.539Z,8.90
2023-03-20T08:45:27.522Z,8.74
2023-03-20T08:47:55.123Z,8.93
2023-03-20T08:50:22.792Z,9.60
2023-03-20T08:52:49.797Z,10.65
2023-03-20T08:55:17.354Z,11.06
2023-03-20T08:57:44.416Z,11.51
2023-03-20T09:00:14.515Z,11.56
2023-03-20T09:02:43.088Z,11.08
2023-03-20T09:05:11.270Z,11.44
2023-03-20T09:07:38.609Z,11.64
2023-03-20T09:10:06.150Z,11.83
2023-03-20T09:12:33.620Z,12.02
2023-03-20T09:15:01.398Z,11.30
2023-03-20T09:17:28.515Z,11.30
2023-03-20T09:19:55.590Z,11.98
2023-03-20T09:22:22.566Z,12.32
2023-03-20T09:24:49.530Z,13.13
2023-03-20T09:27:16.614Z,13.68
2023-03-20T09:29:44.008Z,14.46
2023-03-20T09:32:15.103Z,14.80
2023-03-20T09:34:42.668Z,14.59
2023-03-20T09:37:09.863Z,16.07
2023-03-20T09:39:36.956Z,15.94
2023-03-20T09:42:22.070Z,15.33
2023-03-20T09:45:17.920Z,13.96
2023-03-20T09:48:02.686Z,14.57
2023-03-20T09:50:36.783Z,15.35
2023-03-20T09:53:39.030Z,17.57
2023-03-20T09:56:16.677Z,20.56
2023-03-20T09:58:52.335Z,20.33
2023-03-20T10:01:21.130Z,21.29
2023-03-20T10:03:56.288Z,19.29
2023-03-20T10:06:23.568Z,17.15
2023-03-20T10:08:52.146Z,16.43
2023-03-20T10:11:43.003Z,16.01
2023-03-20T10:14:24.328Z,15.78
2023-03-20T10:17:09.821Z,15.86
2023-03-20T10:19:59.196Z,15.43
2023-03-20T10:22:33.019Z,16.17
2023-03-20T10:25:08.958Z,16.63
2023-03-20T10:28:08.253Z,17.00
2023-03-20T10:31:05.808Z,17.26
2023-03-20T10:33:58.530Z,17.01
2023-03-20T10:36:47.406Z,17.76
2023-03-20T10:39:29.587Z,15.51
2023-03-20T10:42:01.316Z,15.13
2023-03-20T10:44:39.019Z,16.02
2023-03-20T10:47:10.295Z,14.98
2023-03-20T10:49:43.096Z,14.83
2023-03-20T10:52:16.845Z,14.97
2023-03-20T10:55:10.478Z,14.95
2023-03-20T10:57:47.565Z,14.33
2023-03-20T11:00:21.494Z,14.65
2023-03-20T11:02:48.786Z,14.38
2023-03-20T11:05:25.266Z,13.94
2023-03-20T11:08:12.608Z,14.52
2023-03-20T11:10:42.076Z,16.17
2023-03-20T11:13:31.972Z,15.33
2023-03-20T11:16:10.737Z,14.03
2023-03-20T11:18:38.265Z,14.03
2023-03-20T11:21:08.679Z,13.92
2023-03-20T11:23:35.944Z,14.33
2023-03-20T11:26:12.055Z,14.78
2023-03-20T11:28:52.229Z,16.42
2023-03-20T11:31:24.941Z,15.13
2023-03-20T11:33:51.995Z,15.20
2023-03-20T11:36:22.132Z,13.98
2023-03-20T11:38:50.741Z,14.20
2023-03-20T11:41:23.003Z,13.89
2023-03-20T11:43:49.973Z,13.49
2023-03-20T11:46:17.082Z,12.93
2023-03-20T11:48:45.980Z,12.34
2023-03-20T11:51:20.260Z,12.50
2023-03-20T11:53:48.214Z,12.29
2023-03-20T11:56:21.476Z,12.26
2023-03-20T11:59:18.382Z,11.81
2023-03-20T12:01:54.115Z,11.12
2023-03-20T12:04:42.071Z,11.44
2023-03-20T12:07:27.337Z,12.12
2023-03-20T12:10:01.258Z,12.37
2023-03-20T12:12:57.918Z,12.03
2023-03-20T12:15:33.221Z,11.94
2023-03-20T12:18:30.965Z,11.92
2023-03-20T12:21:16.213Z,12.35
2023-03-20T12:23:51.579Z,11.68
2023-03-20T12:26:33.556Z,11.47
2023-03-20T12:29:29.627Z,11.52
2023-03-20T12:32:17.138Z,11.62
2023-03-20T12:34:50.611Z,11.59
2023-03-20T12:37:18.603Z,11.88
2023-03-20T12:39:56.734Z,11.61
2023-03-20T12:42:34.806Z,11.98
2023-03-20T12:45:11.346Z,12.12
2023-03-20T12:48:03.275Z,11.90
2023-03-20T12:50:48.233Z,11.70
2023-03-20T12:53:21.191Z,11.40
2023-03-20T12:56:38.146Z,10.29
2023-03-20T12:59:14.133Z,10.49
2023-03-20T13:02:18.005Z,11.56
2023-03-20T13:05:23.341Z,11.42
2023-03-20T13:08:02.709Z,11.65
2023-03-20T13:10:41.776Z,11.58
2023-03-20T13:13:33.744Z,11.20
2023-03-20T13:16:36.997Z,11.11
2023-03-20T13:19:28.596Z,10.86
2023-03-20T13:22:03.066Z,10.72
2023-03-20T13:24:46.914Z,11.69
2023-03-20T13:27:41.481Z,11.05
2023-03-20T13:30:33.488Z,10.29
2023-03-20T13:33:19.164Z,10.29
2023-03-20T13:36:01.186Z,10.03
2023-03-20T13:38:34.148Z,10.01
2023-03-20T13:41:04.262Z,10.38
2023-03-20T13:43:54.480Z,10.08
2023-03-20T13:46:28.919Z,10.17
2023-03-20T13:49:07.976Z,10.54
2023-03-20T13:52:11.907Z,9.74
2023-03-20T13:55:17.469Z,9.97
2023-03-20T13:58:07.209Z,9.41
2023-03-20T14:00:47.623Z,9.32
2023-03-20T14:03:33.122Z,9.72
2023-03-20T14:06:00.201Z,9.27
2023-03-20T14:08:27.085Z,9.54
2023-03-20T14:11:06.286Z,9.35
2023-03-20T14:13:34.948Z,9.48
2023-03-20T14:16:07.869Z,10.15
2023-03-20T14:18:34.973Z,9.82
2023-03-20T14:21:09.765Z,9.55
2023-03-20T14:23:44.494Z,9.59
2023-03-20T14:26:41.984Z,10.59
2023-03-20T14:29:11.676Z,9.50
2023-03-20T14:31:42.250Z,9.41
2023-03-20T14:34:12.307Z,9.70
2023-03-20T14:36:59.538Z,9.86
2023-03-20T14:39:44.697Z,10.22
2023-03-20T14:42:25.004Z,10.17
2023-03-20T14:45:07.375Z,9.48
2023-03-20T14:47:43.228Z,9.64
2023-03-20T14:50:14.671Z,9.23
2023-03-20T14:52:44.291Z,8.53
2023-03-20T14:55:30.586Z,8.64
2023-03-20T14:58:02.287Z,8.75
2023-03-20T15:00:34.674Z,8.65
2023-03-20T15:03:15.699Z,8.43
2023-03-20T15:05:42.946Z,8.83
2023-03-20T15:08:17.354Z,9.54
2023-03-20T15:10:55.574Z,9.77
2023-03-20T15:13:24.903Z,9.17
2023-03-20T15:15:58.818Z,8.60
2023-03-20T15:18:27.753Z,8.67
2023-03-20T15:20:58.509Z,8.44
2023-03-20T15:23:28.846Z,8.33
2023-03-20T15:25:55.878Z,8.25
2023-03-20T15:28:27.756Z,8.38
2023-03-20T15:30:59.463Z,8.64
2023-03-20T15:33:27.875Z,8.98
2023-03-20T15:35:56.350Z,8.77
2023-03-20T15:38:30.357Z,8.46
2023-03-20T15:40:57.826Z,8.41
2023-03-20T15:43:26.880Z,8.51
2023-03-20T15:46:14.099Z,8.62
2023-03-20T15:48:48.899Z,8.17
2023-03-20T15:51:17.263Z,8.33
2023-03-20T15:53:47.713Z,8.47
2023-03-20T15:56:20.536Z,8.40
2023-03-20T15:58:52.669Z,8.09
2023-03-20T16:01:22.816Z,8.24
2023-03-20T16:03:50.964Z,8.23
2023-03-20T16:06:22.794Z,8.07
2023-03-20T16:09:06.920Z,8.18
2023-03-20T16:11:42.808Z,8.34
2023-03-20T16:14:21.575Z,8.54
2023-03-20T16:16:52.622Z,8.04
2023-03-20T16:19:20.357Z,7.93
2023-03-20T16:21:54.712Z,7.64
2023-03-20T16:24:36.018Z,7.76
2023-03-20T16:27:08.472Z,7.91
2023-03-20T16:29:37.376Z,7.86
2023-03-20T16:32:07.881Z,7.76
2023-03-20T16:34:38.061Z,7.76
2023-03-20T16:37:27.815Z,7.80
2023-03-20T16:40:25.281Z,7.67
2023-03-20T16:42:57.449Z,7.82
2023-03-20T16:45:29.515Z,8.07
2023-03-20T16:48:16.415Z,7.89
2023-03-20T16:50:45.568Z,7.87
2023-03-20T16:53:19.580Z,7.97
2023-03-20T16:55:52.078Z,7.96
2023-03-20T16:58:23.335Z,8.13
2023-03-20T17:00:52.500Z,8.36
2023-03-20T17:03:26.468Z,8.29
2023-03-20T17:06:04.862Z,8.08
2023-03-20T17:08:41.621Z,8.43
2023-03-20T17:11:36.595Z,8.33
2023-03-20T17:14:04.587Z,8.39
2023-03-20T17:16:33.327Z,8.30
2023-03-20T17:19:18.111Z,8.50
2023-03-20T17:21:46.651Z,8.36
2023-03-20T17:24:15.954Z,8.13
2023-03-20T17:26:46.387Z,8.73
2023-03-20T17:29:13.965Z,8.56
2023-03-20T17:31:41.026Z,8.35
2023-03-20T17:34:09.698Z,8.26
2023-03-20T17:36:38.530Z,8.64
2023-03-20T17:39:06.187Z,8.26
2023-03-20T17:41:33.308Z,8.01
2023-03-20T17:44:00.606Z,8.08
2023-03-20T17:46:30.492Z,8.05
2023-03-20T17:49:07.485Z,7.88
2023-03-20T17:51:35.529Z,8.13
2023-03-20T17:54:02.553Z,7.99
2023-03-20T17:56:32.773Z,7.86
2023-03-20T17:59:00.974Z,8.03
2023-03-20T18:01:32.162Z,8.30
2023-03-20T18:03:59.661Z,8.14
2023-03-20T18:06:30.493Z,7.95
2023-03-20T18:08:58.925Z,8.10
2023-03-20T18:11:26.938Z,8.14
2023-03-20T18:13:54.040Z,7.88
2023-03-20T18:16:24.267Z,7.95
2023-03-20T18:18:52.666Z,8.06
2023-03-20T18:21:19.841Z,7.96
2023-03-20T18:23:47.178Z,8.00
2023-03-20T18:26:22.845Z,8.19
2023-03-20T18:28:52.256Z,8.24
2023-03-20T18:31:20.291Z,8.19
2023-03-20T18:33:49.291Z,8.37
2023-03-20T18:36:19.086Z,8.42
2023-03-20T18:38:46.485Z,8.20
2023-03-20T18:41:13.596Z,8.17
2023-03-20T18:43:41.283Z,8.40
2023-03-20T18:46:16.648Z,8.43
2023-03-20T18:48:43.858Z,8.22
2023-03-20T18:51:11.293Z,8.21
2023-03-20T18:53:40.789Z,8.25
2023-03-20T18:56:17.777Z,8.18
2023-03-20T18:58:46.123Z,8.29
2023-03-20T19:01:15.630Z,8.42
2023-03-20T19:03:44.285Z,8.21
2023-03-20T19:06:17.873Z,8.16
2023-03-20T19:08:45.877Z,8.24
2023-03-20T19:11:17.894Z,8.17
2023-03-20T19:13:52.301Z,8.18
2023-03-20T19:16:24.662Z,8.16
2023-03-20T19:18:53.657Z,8.04
2023-03-20T19:21:26.226Z,7.97
2023-03-20T19:23:55.316Z,7.81
2023-03-20T19:26:26.546Z,7.81
2023-03-20T19:28:55.722Z,7.83
2023-03-20T19:31:24.236Z,7.66
2023-03-20T19:33:51.906Z,7.73
2023-03-20T19:36:23.180Z,7.87
2023-03-20T19:38:51.715Z,7.85
2023-03-20T19:41:20.026Z,7.71
2023-03-20T19:43:53.144Z,7.81
2023-03-20T19:46:38.726Z,7.72
2023-03-20T19:49:07.197Z,7.70
2023-03-20T19:51:34.290Z,7.73
2023-03-20T19:54:01.334Z,7.95
2023-03-20T19:56:28.388Z,7.84
2023-03-20T19:58:55.604Z,7.75
2023-03-20T20:01:25.377Z,7.63
2023-03-20T20:03:58.321Z,7.67
2023-03-20T20:06:31.164Z,7.70
2023-03-20T20:08:59.416Z,7.90
2023-03-20T20:11:26.440Z,7.99
2023-03-20T20:14:10.303Z,8.05
2023-03-20T20:16:42.678Z,8.13
2023-03-20T20:19:10.263Z,8.30
2023-03-20T20:24:24.516Z,8.03
2023-03-20T20:27:07.052Z,8.04
2023-03-20T20:29:40.365Z,8.33
2023-03-20T20:32:07.642Z,8.21
2023-03-20T20:40:15.629Z,8.07
2023-03-20T20:42:43.353Z,8.24
2023-03-20T20:45:14.769Z,8.33
2023-03-20T20:47:44.948Z,8.10
2023-03-20T20:50:13.933Z,7.92
2023-03-20T20:52:42.724Z,7.88
2023-03-20T20:55:22.453Z,8.15
2023-03-20T20:57:52.447Z,8.14
2023-03-20T21:00:25.903Z,8.11
2023-03-20T21:02:56.834Z,8.12
2023-03-20T21:05:24.170Z,8.14
2023-03-20T21:07:52.629Z,8.23
2023-03-20T21:10:22.045Z,8.23
2023-03-20T21:12:59.144Z,8.49
2023-03-20T21:15:27.534Z,8.55
2023-03-20T21:18:01.068Z,8.52
2023-03-20T21:20:32.556Z,8.69
2023-03-20T21:22:59.974Z,8.70
2023-03-20T21:25:47.013Z,8.43
2023-03-20T21:28:15.223Z,8.39
2023-03-20T21:30:56.491Z,8.15
2023-03-20T21:33:31.122Z,7.73
2023-03-20T21:35:58.324Z,7.75
2023-03-20T21:41:13.377Z,7.73
2023-03-20T21:43:41.131Z,7.60
2023-03-20T21:49:43.661Z,7.64
2023-03-20T21:52:35.968Z,8.00
2023-03-20T21:58:00.187Z,8.16
2023-03-20T22:02:57.047Z,8.49
2023-03-20T22:06:02.522Z,8.98
2023-03-20T22:11:45.134Z,9.29
2023-03-20T22:20:09.202Z,9.13
2023-03-20T22:25:39.158Z,9.21
2023-03-20T22:28:22.419Z,9.22
2023-03-20T22:34:09.876Z,8.70
2023-03-20T22:37:04.522Z,7.79
2023-03-20T22:40:04.179Z,7.56
2023-03-20T22:42:28.552Z,7.58
2023-03-20T22:44:59.915Z,7.59
2023-03-20T22:47:21.241Z,7.58
2023-03-20T22:49:48.241Z,7.51
2023-03-20T22:52:29.079Z,7.84
2023-03-20T22:55:02.065Z,7.97
2023-03-20T22:57:41.289Z,8.14
2023-03-20T23:00:15.382Z,8.31
2023-03-20T23:02:42.768Z,8.41
2023-03-20T23:05:10.670Z,8.86
2023-03-20T23:07:37.996Z,8.96
2023-03-20T23:10:06.242Z,8.59
2023-03-20T23:12:33.618Z,8.25
2023-03-20T23:15:00.754Z,8.13
2023-03-20T23:17:27.798Z,8.15
2023-03-20T23:20:08.568Z,8.24
2023-03-20T23:22:38.436Z,8.39
2023-03-20T23:25:16.381Z,8.83
2023-03-20T23:27:48.144Z,9.13
2023-03-20T23:30:15.571Z,8.56
2023-03-20T23:32:42.862Z,7.97
2023-03-20T23:35:10.457Z,7.87
2023-03-20T23:37:37.465Z,7.99
2023-03-20T23:40:05.243Z,8.12
2023-03-20T23:42:32.321Z,8.03
2023-03-20T23:45:07.184Z,7.95
2023-03-20T23:50:36.513Z,7.87
2023-03-20T23:53:19.556Z,8.07
2023-03-20T23:55:49.086Z,8.31
2023-03-20T23:58:16.472Z,8.39
